Flight Track Log - Related Links

Times and Time Zones

All times are in EDT time to prevent confusion due to time zone crossing. See the WIG7117 flight status page for this flight to view local times or setup timezone preferences in your user account.

Time Position Orientation Groundspeed Altitude Reporting Facility
EDT Latitude Longitude Course Direction KTS MPH feet Rate Location/Type
Mon 10:24:04 PM 42.7403 -73.8083 184° South 92 106 800  Level Boston Center
Mon 10:24:53 PM 42.7153 -73.8106 184° South 110 127 1,500 881 Climbing Boston Center
Mon 10:25:53 PM 42.6900 -73.8356 216° Southwest 132 152 2,400 843 Climbing Boston Center
Mon 10:26:54 PM 42.6956 -73.8808 279° West 110 127 3,200 806 Climbing Boston Center
Mon 10:28:07 PM 42.7031 -73.9347 281° West 127 146 4,200 857 Climbing Boston Center
Mon 10:29:07 PM 42.7108 -73.9828 282° West 129 148 5,100 843 Climbing Boston Center
Mon 10:30:08 PM 42.7247 -74.0314 291° West 130 150 5,900 738 Climbing Boston Center
Mon 10:31:09 PM 42.7325 -74.0794 282° West 136 157 6,600 738 Climbing Boston Center
Mon 10:32:10 PM 42.7400 -74.1306 281° West 136 157 7,400 694 Climbing Boston Center
Mon 10:33:10 PM 42.7519 -74.1733 291° West 131 151 8,000 313 Climbing Boston Center
Mon 10:34:05 PM 42.7636 -74.2189 289° West 135 155 8,000 61 Level Boston Center
Mon 10:34:48 PM 42.7692 -74.2644 279° West 142 163 8,100 52 Climbing Boston Center
Mon 10:36:01 PM 42.7808 -74.3242 285° West 139 160 8,100  Level Boston Center
Mon 10:37:02 PM 42.7906 -74.3697 286° West 137 158 8,100  Level Boston Center
Mon 10:38:02 PM 42.8019 -74.4267 285° West 137 158 8,100  Level Boston Center
Mon 10:39:03 PM 42.8094 -74.4750 282° West 136 157 8,100  Level Boston Center
Mon 10:40:04 PM 42.8189 -74.5264 284° West 138 159 8,100  Level Boston Center
Mon 10:41:04 PM 42.8306 -74.5747 288° West 136 157 8,100  Level Boston Center
Mon 10:41:59 PM 42.8403 -74.6175 287° West 136 157 8,100  Level Boston Center
Mon 10:42:59 PM 42.8475 -74.6717 280° West 136 157 8,100  Level Boston Center
Mon 10:44:00 PM 42.8569 -74.7203 285° West 137 158 8,100  Level Boston Center
Mon 10:45:01 PM 42.8683 -74.7744 286° West 139 160 8,100  Level Boston Center
Mon 10:46:01 PM 42.8778 -74.8231 285° West 138 159 8,100  Level Boston Center
Mon 10:47:02 PM 42.8892 -74.8772 286° West 138 159 8,100  Level Boston Center
Mon 10:48:02 PM 42.8964 -74.9286 281° West 140 161 8,100  Level Boston Center
Mon 10:49:03 PM 42.9078 -74.9800 287° West 140 161 8,100  Level Boston Center
Mon 10:50:04 PM 42.9169 -75.0314 284° West 140 161 8,100  Level Boston Center
Mon 10:51:04 PM 42.9264 -75.0800 285° West 139 160 8,100  Level Boston Center
Mon 10:52:05 PM 42.9356 -75.1286 284° West 138 159 8,100  Level Boston Center
Mon 10:53:06 PM 42.9428 -75.1800 281° West 136 157 8,100  Level Boston Center
Mon 10:54:06 PM 42.9519 -75.2317 284° West 137 158 8,100 -50 Level Boston Center
Mon 10:55:07 PM 42.9631 -75.2858 286° West 139 160 8,000  Descending Boston Center
Mon 10:56:08 PM 42.9742 -75.3406 286° West 138 159 8,100  Climbing Boston Center
Mon 10:57:08 PM 42.9814 -75.3861 282° West 137 158 8,000 -47 Descending Boston Center
Mon 10:58:15 PM 42.9903 -75.4406 283° West 137 158 8,000 47 Level Boston Center
Mon 10:59:15 PM 43.0014 -75.4950 286° West 137 158 8,100 50 Climbing Boston Center
Mon 11:00:16 PM 43.0103 -75.5467 283° West 138 159 8,100 -49 Level Boston Center
Mon 11:01:17 PM 43.0194 -75.5983 284° West 137 158 8,000 -694 Descending Boston Center
Mon 11:02:17 PM 43.0303 -75.6583 284° West 179 206 6,700 -1,091 Descending Boston Center
Mon 11:03:18 PM 43.0408 -75.7214 283° West 178 205 5,800 -761 Descending Boston Center
Mon 11:04:31 PM 43.0575 -75.7992 286° West 166 191 5,000 -541 Descending Boston Center
Mon 11:05:31 PM 43.0661 -75.8536 282° West 150 173 4,600 -595 Descending Boston Center
Mon 11:06:32 PM 43.0769 -75.9111 284° West 163 188 3,800 -787 Descending Boston Center
Mon 11:07:33 PM 43.0856 -75.9714 281° West 166 191 3,000 -730 Descending Boston Center
Mon 11:08:27 PM 43.0900 -76.0283 276° West 163 188 2,400 -574 Descending Boston Center
Mon 11:09:28 PM 43.0819 -76.0878 260° West 155 178 1,900 -397 Descending Boston Center
Mon 11:10:28 PM 43.0781 -76.1414 264° West 140 161 1,600 -300 Descending Boston Center

Login

Don't have an account? Register now (free) for customized features, flight alerts, and more!